sensor_id;sensor_type;location;lat;lon;timestamp;pressure;altitude;pressure_sealevel;temperature;humidity
44926;BME280;30662;51.210;7.656;2023-02-22T00:00:12;150323.28;;;6.07;100.00
44926;BME280;30662;51.210;7.656;2023-02-22T00:02:45;150352.34;;;6.19;100.00
44926;BME280;30662;51.210;7.656;2023-02-22T00:05:17;150354.84;;;6.20;100.00
44926;BME280;30662;51.210;7.656;2023-02-22T00:07:46;150348.56;;;6.17;100.00
44926;BME280;30662;51.210;7.656;2023-02-22T00:10:16;150402.81;;;6.39;100.00
44926;BME280;30662;51.210;7.656;2023-02-22T00:12:46;150405.34;;;6.40;100.00
44926;BME280;30662;51.210;7.656;2023-02-22T00:15:16;150367.50;;;6.25;100.00
44926;BME280;30662;51.210;7.656;2023-02-22T00:17:43;150342.22;;;6.15;100.00
44926;BME280;30662;51.210;7.656;2023-02-22T00:20:10;150370.00;;;6.26;100.00
44926;BME280;30662;51.210;7.656;2023-02-22T00:22:41;150381.38;;;6.30;100.00
44926;BME280;30662;51.210;7.656;2023-02-22T00:25:07;150376.28;;;6.28;100.00
44926;BME280;30662;51.210;7.656;2023-02-22T00:27:33;150410.38;;;6.42;100.00
44926;BME280;30662;51.210;7.656;2023-02-22T00:29:59;150382.63;;;6.31;100.00
44926;BME280;30662;51.210;7.656;2023-02-22T00:32:25;150399.03;;;6.38;100.00
44926;BME280;30662;51.210;7.656;2023-02-22T00:34:52;150376.28;;;6.28;100.00
44926;BME280;30662;51.210;7.656;2023-02-22T00:37:19;150381.38;;;6.30;100.00
44926;BME280;30662;51.210;7.656;2023-02-22T00:39:47;150371.25;;;6.26;100.00
44926;BME280;30662;51.210;7.656;2023-02-22T00:42:14;150343.47;;;6.15;100.00
44926;BME280;30662;51.210;7.656;2023-02-22T00:44:40;150361.16;;;6.22;100.00
44926;BME280;30662;51.210;7.656;2023-02-22T00:47:06;150342.22;;;6.15;100.00
44926;BME280;30662;51.210;7.656;2023-02-22T00:49:33;150349.81;;;6.18;100.00
44926;BME280;30662;51.210;7.656;2023-02-22T00:51:59;150353.59;;;6.19;100.00
44926;BME280;30662;51.210;7.656;2023-02-22T00:54:26;150357.38;;;6.21;100.00
44926;BME280;30662;51.210;7.656;2023-02-22T00:56:51;150363.72;;;6.23;100.00
44926;BME280;30662;51.210;7.656;2023-02-22T00:59:17;150371.25;;;6.26;100.00
44926;BME280;30662;51.210;7.656;2023-02-22T01:01:43;150377.56;;;6.29;100.00
44926;BME280;30662;51.210;7.656;2023-02-22T01:04:09;150387.66;;;6.33;100.00
44926;BME280;30662;51.210;7.656;2023-02-22T01:06:35;150400.31;;;6.38;100.00
44926;BME280;30662;51.210;7.656;2023-02-22T01:09:02;150401.56;;;6.39;100.00
44926;BME280;30662;51.210;7.656;2023-02-22T01:11:28;150425.53;;;6.48;100.00
44926;BME280;30662;51.210;7.656;2023-02-22T01:13:55;150414.16;;;6.44;100.00
44926;BME280;30662;51.210;7.656;2023-02-22T01:16:22;150376.28;;;6.28;100.00
44926;BME280;30662;51.210;7.656;2023-02-22T01:18:48;150342.22;;;6.15;100.00
44926;BME280;30662;51.210;7.656;2023-02-22T01:21:14;150351.06;;;6.18;100.00
44926;BME280;30662;51.210;7.656;2023-02-22T01:23:43;150349.81;;;6.18;100.00
44926;BME280;30662;51.210;7.656;2023-02-22T01:26:09;150342.22;;;6.15;100.00
44926;BME280;30662;51.210;7.656;2023-02-22T01:28:36;150322.03;;;6.06;100.00
44926;BME280;30662;51.210;7.656;2023-02-22T01:31:03;150351.06;;;6.18;100.00
44926;BME280;30662;51.210;7.656;2023-02-22T01:33:29;150330.91;;;6.10;100.00
44926;BME280;30662;51.210;7.656;2023-02-22T01:35:56;150323.28;;;6.07;100.00
44926;BME280;30662;51.210;7.656;2023-02-22T01:38:22;150364.97;;;6.24;100.00
44926;BME280;30662;51.210;7.656;2023-02-22T01:40:49;150390.19;;;6.34;100.00
44926;BME280;30662;51.210;7.656;2023-02-22T01:43:26;150411.63;;;6.43;100.00
44926;BME280;30662;51.210;7.656;2023-02-22T01:48:51;150401.56;;;6.39;100.00
44926;BME280;30662;51.210;7.656;2023-02-22T01:51:20;150410.38;;;6.42;100.00
44926;BME280;30662;51.210;7.656;2023-02-22T01:54:05;150419.22;;;6.46;100.00
44926;BME280;30662;51.210;7.656;2023-02-22T01:56:35;150400.31;;;6.38;100.00
44926;BME280;30662;51.210;7.656;2023-02-22T01:59:06;150404.06;;;6.40;100.00
44926;BME280;30662;51.210;7.656;2023-02-22T02:04:20;150380.06;;;6.30;100.00
44926;BME280;30662;51.210;7.656;2023-02-22T02:06:52;150370.00;;;6.26;100.00
44926;BME280;30662;51.210;7.656;2023-02-22T02:09:39;150342.22;;;6.15;100.00
44926;BME280;30662;51.210;7.656;2023-02-22T02:12:10;150329.63;;;6.10;100.00
44926;BME280;30662;51.210;7.656;2023-02-22T02:14:37;150347.31;;;6.17;100.00
44926;BME280;30662;51.210;7.656;2023-02-22T02:17:09;150363.72;;;6.23;100.00
44926;BME280;30662;51.210;7.656;2023-02-22T02:19:44;150348.56;;;6.17;100.00
44926;BME280;30662;51.210;7.656;2023-02-22T02:23:32;150344.78;;;6.16;100.00
44926;BME280;30662;51.210;7.656;2023-02-22T02:31:23;150313.22;;;6.03;100.00
44926;BME280;30662;51.210;7.656;2023-02-22T02:36:43;150348.56;;;6.17;100.00
44926;BME280;30662;51.210;7.656;2023-02-22T02:42:05;150298.09;;;5.97;100.00
44926;BME280;30662;51.210;7.656;2023-02-22T02:44:38;150317.00;;;6.04;100.00
44926;BME280;30662;51.210;7.656;2023-02-22T02:47:27;150330.91;;;6.10;100.00
44926;BME280;30662;51.210;7.656;2023-02-22T02:50:10;150371.25;;;6.26;100.00
44926;BME280;30662;51.210;7.656;2023-02-22T02:52:40;150368.75;;;6.25;100.00
44926;BME280;30662;51.210;7.656;2023-02-22T02:55:07;150356.09;;;6.20;100.00
44926;BME280;30662;51.210;7.656;2023-02-22T02:57:36;150359.88;;;6.22;100.00
44926;BME280;30662;51.210;7.656;2023-02-22T03:00:05;150347.31;;;6.17;100.00
44926;BME280;30662;51.210;7.656;2023-02-22T03:08:29;150328.38;;;6.09;100.00
44926;BME280;30662;51.210;7.656;2023-02-22T03:11:18;150322.03;;;6.06;100.00
44926;BME280;30662;51.210;7.656;2023-02-22T03:16:56;150313.22;;;6.03;100.00
44926;BME280;30662;51.210;7.656;2023-02-22T03:22:19;150317.00;;;6.04;100.00
44926;BME280;30662;51.210;7.656;2023-02-22T03:25:05;150303.13;;;5.99;100.00
44926;BME280;30662;51.210;7.656;2023-02-22T03:27:54;150327.13;;;6.08;100.00
44926;BME280;30662;51.210;7.656;2023-02-22T03:30:30;150325.81;;;6.08;100.00
44926;BME280;30662;51.210;7.656;2023-02-22T03:33:05;150286.72;;;5.92;100.00
44926;BME280;30662;51.210;7.656;2023-02-22T03:35:40;150306.88;;;6.00;100.00
44926;BME280;30662;51.210;7.656;2023-02-22T03:38:10;150293.06;;;5.95;100.00
44926;BME280;30662;51.210;7.656;2023-02-22T03:40:43;150323.28;;;6.07;100.00
44926;BME280;30662;51.210;7.656;2023-02-22T03:43:15;150300.59;;;5.98;100.00
44926;BME280;30662;51.210;7.656;2023-02-22T03:45:44;150291.78;;;5.94;100.00
44926;BME280;30662;51.210;7.656;2023-02-22T03:48:33;150276.59;;;5.88;100.00
44926;BME280;30662;51.210;7.656;2023-02-22T03:51:01;150267.75;;;5.85;100.00
44926;BME280;30662;51.210;7.656;2023-02-22T03:53:30;150252.59;;;5.78;100.00
44926;BME280;30662;51.210;7.656;2023-02-22T03:55:58;150234.94;;;5.71;100.00
44926;BME280;30662;51.210;7.656;2023-02-22T03:58:27;150228.66;;;5.69;100.00
44926;BME280;30662;51.210;7.656;2023-02-22T04:00:55;150231.16;;;5.70;100.00
44926;BME280;30662;51.210;7.656;2023-02-22T04:03:22;150256.41;;;5.80;100.00
44926;BME280;30662;51.210;7.656;2023-02-22T04:05:48;150226.13;;;5.68;100.00
44926;BME280;30662;51.210;7.656;2023-02-22T04:08:15;150203.44;;;5.59;100.00
44926;BME280;30662;51.210;7.656;2023-02-22T04:10:41;150180.72;;;5.49;100.00
44926;BME280;30662;51.210;7.656;2023-02-22T04:13:07;150166.88;;;5.44;100.00
44926;BME280;30662;51.210;7.656;2023-02-22T04:15:34;150179.44;;;5.49;100.00
44926;BME280;30662;51.210;7.656;2023-02-22T04:18:00;150169.38;;;5.45;100.00
44926;BME280;30662;51.210;7.656;2023-02-22T04:20:26;150160.53;;;5.41;100.00
44926;BME280;30662;51.210;7.656;2023-02-22T04:22:53;150192.06;;;5.54;100.00
44926;BME280;30662;51.210;7.656;2023-02-22T04:25:21;150181.97;;;5.50;100.00
44926;BME280;30662;51.210;7.656;2023-02-22T04:27:48;150160.53;;;5.41;100.00
44926;BME280;30662;51.210;7.656;2023-02-22T04:30:17;150161.78;;;5.42;100.00
44926;BME280;30662;51.210;7.656;2023-02-22T04:32:43;150147.97;;;5.36;100.00
44926;BME280;30662;51.210;7.656;2023-02-22T04:35:09;150153.00;;;5.38;100.00
44926;BME280;30662;51.210;7.656;2023-02-22T04:37:35;150153.00;;;5.38;100.00
44926;BME280;30662;51.210;7.656;2023-02-22T04:40:03;150125.22;;;5.27;100.00
44926;BME280;30662;51.210;7.656;2023-02-22T04:42:35;150142.88;;;5.34;100.00
44926;BME280;30662;51.210;7.656;2023-02-22T04:45:05;150164.31;;;5.43;100.00
44926;BME280;30662;51.210;7.656;2023-02-22T04:47:33;150155.50;;;5.39;100.00
44926;BME280;30662;51.210;7.656;2023-02-22T04:49:59;150154.25;;;5.39;100.00
44926;BME280;30662;51.210;7.656;2023-02-22T04:52:26;150174.41;;;5.47;100.00
44926;BME280;30662;51.210;7.656;2023-02-22T04:54:52;150160.53;;;5.41;100.00
44926;BME280;30662;51.210;7.656;2023-02-22T04:57:19;150156.75;;;5.40;100.00
44926;BME280;30662;51.210;7.656;2023-02-22T04:59:44;150169.38;;;5.45;100.00
44926;BME280;30662;51.210;7.656;2023-02-22T05:02:10;150184.53;;;5.51;100.00
44926;BME280;30662;51.210;7.656;2023-02-22T05:04:37;150168.13;;;5.44;100.00
44926;BME280;30662;51.210;7.656;2023-02-22T05:07:03;150180.72;;;5.49;100.00
44926;BME280;30662;51.210;7.656;2023-02-22T05:09:29;150178.19;;;5.48;100.00
44926;BME280;30662;51.210;7.656;2023-02-22T05:11:55;150222.34;;;5.66;100.00
44926;BME280;30662;51.210;7.656;2023-02-22T05:14:21;150212.25;;;5.62;100.00
44926;BME280;30662;51.210;7.656;2023-02-22T05:16:48;150218.53;;;5.65;100.00
44926;BME280;30662;51.210;7.656;2023-02-22T05:19:14;150198.38;;;5.57;100.00
44926;BME280;30662;51.210;7.656;2023-02-22T05:21:40;150204.69;;;5.59;100.00
44926;BME280;30662;51.210;7.656;2023-02-22T05:24:06;150211.00;;;5.62;100.00
44926;BME280;30662;51.210;7.656;2023-02-22T05:26:32;150211.00;;;5.62;100.00
44926;BME280;30662;51.210;7.656;2023-02-22T05:28:58;150227.41;;;5.68;100.00
44926;BME280;30662;51.210;7.656;2023-02-22T05:31:24;150214.75;;;5.63;100.00
44926;BME280;30662;51.210;7.656;2023-02-22T05:33:50;150257.69;;;5.80;100.00
44926;BME280;30662;51.210;7.656;2023-02-22T05:36:15;150263.97;;;5.83;100.00
44926;BME280;30662;51.210;7.656;2023-02-22T05:38:41;150240.03;;;5.73;100.00
44926;BME280;30662;51.210;7.656;2023-02-22T05:41:10;150269.00;;;5.85;100.00
44926;BME280;30662;51.210;7.656;2023-02-22T05:43:37;150300.59;;;5.98;100.00
44926;BME280;30662;51.210;7.656;2023-02-22T05:46:03;150310.72;;;6.02;100.00
44926;BME280;30662;51.210;7.656;2023-02-22T05:48:29;150347.31;;;6.17;100.00
44926;BME280;30662;51.210;7.656;2023-02-22T05:50:56;150339.69;;;6.14;100.00
44926;BME280;30662;51.210;7.656;2023-02-22T05:53:23;150348.56;;;6.17;100.00
44926;BME280;30662;51.210;7.656;2023-02-22T05:55:50;150373.78;;;6.27;100.00
44926;BME280;30662;51.210;7.656;2023-02-22T05:58:16;150371.25;;;6.26;100.00
44926;BME280;30662;51.210;7.656;2023-02-22T06:00:42;150377.56;;;6.29;100.00
44926;BME280;30662;51.210;7.656;2023-02-22T06:03:09;150417.97;;;6.45;100.00
44926;BME280;30662;51.210;7.656;2023-02-22T06:05:36;150425.53;;;6.48;100.00
44926;BME280;30662;51.210;7.656;2023-02-22T06:08:02;150431.81;;;6.51;100.00
44926;BME280;30662;51.210;7.656;2023-02-22T06:10:29;150468.41;;;6.66;100.00
44926;BME280;30662;51.210;7.656;2023-02-22T06:12:55;150449.50;;;6.58;100.00
44926;BME280;30662;51.210;7.656;2023-02-22T06:15:22;150458.34;;;6.61;100.00
44926;BME280;30662;51.210;7.656;2023-02-22T06:17:49;150450.75;;;6.58;100.00
44926;BME280;30662;51.210;7.656;2023-02-22T06:20:18;150430.56;;;6.50;100.00
44926;BME280;30662;51.210;7.656;2023-02-22T06:22:51;150460.88;;;6.62;100.00
44926;BME280;30662;51.210;7.656;2023-02-22T06:25:23;150483.56;;;6.72;100.00
44926;BME280;30662;51.210;7.656;2023-02-22T06:27:49;150478.53;;;6.70;100.00
44926;BME280;30662;51.210;7.656;2023-02-22T06:30:18;150467.16;;;6.65;100.00
44926;BME280;30662;51.210;7.656;2023-02-22T06:32:44;150496.22;;;6.77;100.00
44926;BME280;30662;51.210;7.656;2023-02-22T06:35:10;150481.06;;;6.71;100.00
44926;BME280;30662;51.210;7.656;2023-02-22T06:37:35;150473.50;;;6.68;100.00
44926;BME280;30662;51.210;7.656;2023-02-22T06:40:04;150472.25;;;6.67;100.00
44926;BME280;30662;51.210;7.656;2023-02-22T06:42:31;150457.09;;;6.61;100.00
44926;BME280;30662;51.210;7.656;2023-02-22T06:44:57;150438.16;;;6.53;100.00
44926;BME280;30662;51.210;7.656;2023-02-22T06:47:23;150457.09;;;6.61;100.00
44926;BME280;30662;51.210;7.656;2023-02-22T06:49:53;150438.16;;;6.53;100.00
44926;BME280;30662;51.210;7.656;2023-02-22T06:52:19;150444.47;;;6.56;100.00
44926;BME280;30662;51.210;7.656;2023-02-22T06:54:45;150438.16;;;6.53;100.00
44926;BME280;30662;51.210;7.656;2023-02-22T06:57:11;150443.19;;;6.55;100.00
44926;BME280;30662;51.210;7.656;2023-02-22T06:59:37;150455.84;;;6.60;100.00
44926;BME280;30662;51.210;7.656;2023-02-22T07:02:03;150438.16;;;6.53;100.00
44926;BME280;30662;51.210;7.656;2023-02-22T07:04:29;150457.09;;;6.61;100.00
44926;BME280;30662;51.210;7.656;2023-02-22T07:06:55;150445.72;;;6.56;100.00
44926;BME280;30662;51.210;7.656;2023-02-22T07:09:21;150482.31;;;6.71;100.00
44926;BME280;30662;51.210;7.656;2023-02-22T07:11:46;150489.91;;;6.74;100.00
44926;BME280;30662;51.210;7.656;2023-02-22T07:14:14;150479.78;;;6.70;100.00
44926;BME280;30662;51.210;7.656;2023-02-22T07:16:40;150474.75;;;6.68;100.00
44926;BME280;30662;51.210;7.656;2023-02-22T07:19:06;150492.44;;;6.75;100.00
44926;BME280;30662;51.210;7.656;2023-02-22T07:21:32;150483.56;;;6.72;100.00
44926;BME280;30662;51.210;7.656;2023-02-22T07:23:58;150477.28;;;6.69;100.00
44926;BME280;30662;51.210;7.656;2023-02-22T07:26:24;150508.84;;;6.82;100.00
44926;BME280;30662;51.210;7.656;2023-02-22T07:28:51;150510.09;;;6.82;100.00
44926;BME280;30662;51.210;7.656;2023-02-22T07:31:17;150489.91;;;6.74;100.00
44926;BME280;30662;51.210;7.656;2023-02-22T07:33:47;150498.72;;;6.78;100.00
44926;BME280;30662;51.210;7.656;2023-02-22T07:36:13;150540.38;;;6.95;100.00
44926;BME280;30662;51.210;7.656;2023-02-22T07:38:45;150550.50;;;6.99;100.00
44926;BME280;30662;51.210;7.656;2023-02-22T07:41:11;150535.34;;;6.93;100.00
44926;BME280;30662;51.210;7.656;2023-02-22T07:43:37;150553.00;;;7.00;100.00
44926;BME280;30662;51.210;7.656;2023-02-22T07:46:03;150545.47;;;6.97;100.00
44926;BME280;30662;51.210;7.656;2023-02-22T07:48:30;150565.66;;;7.05;100.00
44926;BME280;30662;51.210;7.656;2023-02-22T07:50:57;150584.59;;;7.12;100.00
44926;BME280;30662;51.210;7.656;2023-02-22T07:53:28;150590.88;;;7.15;100.00
44926;BME280;30662;51.210;7.656;2023-02-22T07:55:58;150604.78;;;7.21;100.00
44926;BME280;30662;51.210;7.656;2023-02-22T07:58:27;150617.44;;;7.26;100.00
44926;BME280;30662;51.210;7.656;2023-02-22T08:00:53;150638.91;;;7.34;100.00
44926;BME280;30662;51.210;7.656;2023-02-22T08:03:22;150652.78;;;7.40;100.00
44926;BME280;30662;51.210;7.656;2023-02-22T08:05:51;150671.75;;;7.47;100.00
44926;BME280;30662;51.210;7.656;2023-02-22T08:08:18;150705.84;;;7.61;100.00
44926;BME280;30662;51.210;7.656;2023-02-22T08:10:46;150691.94;;;7.56;100.00
44926;BME280;30662;51.210;7.656;2023-02-22T08:13:11;150731.09;;;7.71;100.00
44926;BME280;30662;51.210;7.656;2023-02-22T08:15:39;150741.22;;;7.76;100.00
44926;BME280;30662;51.210;7.656;2023-02-22T08:18:11;150755.06;;;7.81;100.00
44926;BME280;30662;51.210;7.656;2023-02-22T08:20:40;150742.47;;;7.76;100.00
44926;BME280;30662;51.210;7.656;2023-02-22T08:23:07;150737.38;;;7.74;100.00
44926;BME280;30662;51.210;7.656;2023-02-22T08:25:33;150780.38;;;7.91;100.00
44926;BME280;30662;51.210;7.656;2023-02-22T08:28:21;150786.69;;;7.94;100.00
44926;BME280;30662;51.210;7.656;2023-02-22T08:30:48;150755.06;;;7.81;100.00
44926;BME280;30662;51.210;7.656;2023-02-22T08:33:15;150784.16;;;7.93;100.00
44926;BME280;30662;51.210;7.656;2023-02-22T08:35:46;150825.84;;;8.10;100.00
44926;BME280;30662;51.210;7.656;2023-02-22T08:40:44;150862.47;;;8.24;100.00
44926;BME280;30662;51.210;7.656;2023-02-22T08:43:10;150877.66;;;8.30;100.00
44926;BME280;30662;51.210;7.656;2023-02-22T08:45:38;150891.63;;;8.36;100.00
44926;BME280;30662;51.210;7.656;2023-02-22T08:48:04;150889.09;;;8.35;100.00
44926;BME280;30662;51.210;7.656;2023-02-22T08:50:31;150929.53;;;8.51;100.00
44926;BME280;30662;51.210;7.656;2023-02-22T08:53:02;150929.53;;;8.51;100.00
44926;BME280;30662;51.210;7.656;2023-02-22T08:55:34;150915.63;;;8.46;100.00
44926;BME280;30662;51.210;7.656;2023-02-22T08:58:01;150930.78;;;8.52;100.00
44926;BME280;30662;51.210;7.656;2023-02-22T09:00:28;150988.94;;;8.75;100.00
44926;BME280;30662;51.210;7.656;2023-02-22T09:03:02;150997.81;;;8.79;100.00
44926;BME280;30662;51.210;7.656;2023-02-22T09:05:28;151015.50;;;8.86;100.00
44926;BME280;30662;51.210;7.656;2023-02-22T09:07:56;151053.44;;;9.01;100.00
44926;BME280;30662;51.210;7.656;2023-02-22T09:10:27;151083.78;;;9.14;100.00
44926;BME280;30662;51.210;7.656;2023-02-22T09:12:54;151115.38;;;9.26;100.00
44926;BME280;30662;51.210;7.656;2023-02-22T09:15:21;151098.94;;;9.20;100.00
44926;BME280;30662;51.210;7.656;2023-02-22T09:17:47;151091.38;;;9.17;100.00
44926;BME280;30662;51.210;7.656;2023-02-22T09:20:16;151101.50;;;9.21;100.00
44926;BME280;30662;51.210;7.656;2023-02-22T09:22:44;151152.06;;;9.41;100.00
44926;BME280;30662;51.210;7.656;2023-02-22T09:25:10;151196.34;;;9.59;100.00
44926;BME280;30662;51.210;7.656;2023-02-22T09:27:42;151187.47;;;9.55;100.00
44926;BME280;30662;51.210;7.656;2023-02-22T09:32:59;151184.94;;;9.54;100.00
44926;BME280;30662;51.210;7.656;2023-02-22T09:35:26;151230.50;;;9.73;100.00
44926;BME280;30662;51.210;7.656;2023-02-22T09:37:56;151263.41;;;9.86;100.00
44926;BME280;30662;51.210;7.656;2023-02-22T09:40:23;151263.41;;;9.86;100.00
44926;BME280;30662;51.210;7.656;2023-02-22T09:43:10;151312.72;;;10.06;100.00
44926;BME280;30662;51.210;7.656;2023-02-22T09:48:13;151378.59;;;10.32;100.00
44926;BME280;30662;51.210;7.656;2023-02-22T09:50:49;151400.13;;;10.41;100.00
44926;BME280;30662;51.210;7.656;2023-02-22T09:53:24;151420.38;;;10.49;99.76
44926;BME280;30662;51.210;7.656;2023-02-22T09:55:58;151445.72;;;10.59;99.22
44926;BME280;30662;51.210;7.656;2023-02-22T09:58:34;151500.16;;;10.81;98.47
44926;BME280;30662;51.210;7.656;2023-02-22T10:01:44;151536.88;;;10.96;95.70
44926;BME280;30662;51.210;7.656;2023-02-22T10:04:00;151544.44;;;10.99;95.10
44926;BME280;30662;51.210;7.656;2023-02-22T10:06:29;151634.38;;;11.35;95.42
44926;BME280;30662;51.210;7.656;2023-02-22T10:08:58;151696.47;;;11.60;91.51
44926;BME280;30662;51.210;7.656;2023-02-22T10:11:48;151789.00;;;11.97;88.42
44926;BME280;30662;51.210;7.656;2023-02-22T10:22:55;152309.00;;;14.06;71.18
44926;BME280;30662;51.210;7.656;2023-02-22T10:25:30;152262.03;;;13.87;71.88
44926;BME280;30662;51.210;7.656;2023-02-22T10:30:49;152333.09;;;14.16;69.30
44926;BME280;30662;51.210;7.656;2023-02-22T10:33:23;152371.16;;;14.31;68.61
44926;BME280;30662;51.210;7.656;2023-02-22T10:35:53;152505.81;;;14.85;66.63
44926;BME280;30662;51.210;7.656;2023-02-22T10:38:25;152542.63;;;15.00;63.86
44926;BME280;30662;51.210;7.656;2023-02-22T10:43:23;152447.38;;;14.61;66.70
44926;BME280;30662;51.210;7.656;2023-02-22T10:45:53;152518.47;;;14.90;64.67
44926;BME280;30662;51.210;7.656;2023-02-22T10:48:21;152598.50;;;15.22;62.91
44926;BME280;30662;51.210;7.656;2023-02-22T10:50:48;152564.22;;;15.08;65.04
44926;BME280;30662;51.210;7.656;2023-02-22T10:53:17;152635.34;;;15.37;62.49
44926;BME280;30662;51.210;7.656;2023-02-22T10:58:46;152603.59;;;15.24;61.07
44926;BME280;30662;51.210;7.656;2023-02-22T11:04:17;152513.41;;;14.88;62.31
44926;BME280;30662;51.210;7.656;2023-02-22T11:06:47;152729.38;;;15.75;59.46
44926;BME280;30662;51.210;7.656;2023-02-22T11:09:19;152594.66;;;15.21;61.25
44926;BME280;30662;51.210;7.656;2023-02-22T11:11:50;152390.19;;;14.39;63.40
44926;BME280;30662;51.210;7.656;2023-02-22T11:14:31;152301.38;;;14.03;65.95
44926;BME280;30662;51.210;7.656;2023-02-22T11:16:59;152491.84;;;14.79;62.87
44926;BME280;30662;51.210;7.656;2023-02-22T11:19:27;152608.66;;;15.26;61.22
44926;BME280;30662;51.210;7.656;2023-02-22T11:21:57;152747.19;;;15.82;59.09
44926;BME280;30662;51.210;7.656;2023-02-22T11:24:24;152770.03;;;15.91;53.67
44926;BME280;30662;51.210;7.656;2023-02-22T11:26:59;152968.38;;;16.70;54.98
44926;BME280;30662;51.210;7.656;2023-02-22T11:29:28;153129.88;;;17.35;50.97
44926;BME280;30662;51.210;7.656;2023-02-22T11:32:17;153263.47;;;17.88;48.34
44926;BME280;30662;51.210;7.656;2023-02-22T11:34:47;153255.84;;;17.85;48.27
44926;BME280;30662;51.210;7.656;2023-02-22T11:39:48;153067.56;;;17.10;47.70
44926;BME280;30662;51.210;7.656;2023-02-22T11:42:26;153156.59;;;17.46;46.62
44926;BME280;30662;51.210;7.656;2023-02-22T11:45:13;153311.84;;;18.08;43.89
44926;BME280;30662;51.210;7.656;2023-02-22T11:48:01;153504.09;;;18.85;43.93
44926;BME280;30662;51.210;7.656;2023-02-22T11:50:56;153902.88;;;20.44;40.00
44926;BME280;30662;51.210;7.656;2023-02-22T11:53:46;153459.50;;;18.67;40.74
44926;BME280;30662;51.210;7.656;2023-02-22T11:56:30;152979.81;;;16.75;45.30
44926;BME280;30662;51.210;7.656;2023-02-22T12:10:07;152166.88;;;13.49;63.81
44926;BME280;30662;51.210;7.656;2023-02-22T12:21:12;152865.34;;;16.29;52.21
44926;BME280;30662;51.210;7.656;2023-02-22T12:23:44;153044.63;;;17.01;51.76
44926;BME280;30662;51.210;7.656;2023-02-22T12:26:20;153123.53;;;17.32;50.52
44926;BME280;30662;51.210;7.656;2023-02-22T12:31:35;152927.66;;;16.54;52.99
44926;BME280;30662;51.210;7.656;2023-02-22T12:34:12;153052.31;;;17.04;51.78
44926;BME280;30662;51.210;7.656;2023-02-22T12:36:55;153007.78;;;16.86;52.29
44926;BME280;30662;51.210;7.656;2023-02-22T12:39:41;153067.56;;;17.10;52.70
44926;BME280;30662;51.210;7.656;2023-02-22T12:43:05;152668.38;;;15.50;59.08
44926;BME280;30662;51.210;7.656;2023-02-22T12:45:14;152470.25;;;14.71;62.52
44926;BME280;30662;51.210;7.656;2023-02-22T12:47:50;152526.13;;;14.93;63.61
44926;BME280;30662;51.210;7.656;2023-02-22T12:50:25;152838.66;;;16.18;59.24
44926;BME280;30662;51.210;7.656;2023-02-22T12:53:15;153115.88;;;17.29;55.54
44926;BME280;30662;51.210;7.656;2023-02-22T12:55:51;152931.44;;;16.55;56.88
44926;BME280;30662;51.210;7.656;2023-02-22T13:01:10;152837.41;;;16.18;53.01
44926;BME280;30662;51.210;7.656;2023-02-22T13:03:40;152832.34;;;16.16;53.09
44926;BME280;30662;51.210;7.656;2023-02-22T13:12:06;153641.59;;;19.40;42.53
44926;BME280;30662;51.210;7.656;2023-02-22T13:15:06;153257.13;;;17.86;46.23
44926;BME280;30662;51.210;7.656;2023-02-22T13:30:41;152319.13;;;14.10;64.39
44926;BME280;30662;51.210;7.656;2023-02-22T13:36:31;152185.91;;;13.57;70.43
44926;BME280;30662;51.210;7.656;2023-02-22T13:41:26;152319.13;;;14.10;72.69
44926;BME280;30662;51.210;7.656;2023-02-22T13:52:15;152902.19;;;16.44;53.05
44926;BME280;30662;51.210;7.656;2023-02-22T13:54:45;153165.47;;;17.49;48.12
44926;BME280;30662;51.210;7.656;2023-02-22T13:57:27;153071.38;;;17.12;48.04
44926;BME280;30662;51.210;7.656;2023-02-22T14:11:00;152758.63;;;15.86;56.55
44926;BME280;30662;51.210;7.656;2023-02-22T14:13:28;152731.94;;;15.76;57.00
44926;BME280;30662;51.210;7.656;2023-02-22T14:18:41;152460.09;;;14.67;58.90
44926;BME280;30662;51.210;7.656;2023-02-22T14:23:37;152265.81;;;13.89;60.90
44926;BME280;30662;51.210;7.656;2023-02-22T14:26:16;152183.38;;;13.56;64.64
44926;BME280;30662;51.210;7.656;2023-02-22T14:28:47;152127.56;;;13.33;65.01
44926;BME280;30662;51.210;7.656;2023-02-22T14:31:18;152084.38;;;13.16;65.65
44926;BME280;30662;51.210;7.656;2023-02-22T14:36:55;152004.50;;;12.84;69.13
44926;BME280;30662;51.210;7.656;2023-02-22T14:39:59;151990.53;;;12.78;70.64
44926;BME280;30662;51.210;7.656;2023-02-22T14:42:28;151941.09;;;12.58;71.18
44926;BME280;30662;51.210;7.656;2023-02-22T14:47:41;151895.47;;;12.40;73.02
44926;BME280;30662;51.210;7.656;2023-02-22T14:53:13;151868.81;;;12.29;72.83
44926;BME280;30662;51.210;7.656;2023-02-22T14:55:50;151839.72;;;12.18;74.50
44926;BME280;30662;51.210;7.656;2023-02-22T14:58:23;151809.28;;;12.05;76.54
44926;BME280;30662;51.210;7.656;2023-02-22T15:00:51;151844.75;;;12.20;76.54
44926;BME280;30662;51.210;7.656;2023-02-22T15:03:32;151865.03;;;12.28;78.24
44926;BME280;30662;51.210;7.656;2023-02-22T15:06:09;151870.09;;;12.30;75.75
44926;BME280;30662;51.210;7.656;2023-02-22T15:08:40;151800.38;;;12.02;75.63
44926;BME280;30662;51.210;7.656;2023-02-22T15:11:25;151724.31;;;11.71;75.06
44926;BME280;30662;51.210;7.656;2023-02-22T15:13:53;151757.31;;;11.84;75.04
44926;BME280;30662;51.210;7.656;2023-02-22T15:16:21;151730.69;;;11.74;75.72
44926;BME280;30662;51.210;7.656;2023-02-22T15:18:59;151763.63;;;11.87;74.52
44926;BME280;30662;51.210;7.656;2023-02-22T15:21:27;151682.53;;;11.54;74.78
44926;BME280;30662;51.210;7.656;2023-02-22T15:23:58;151697.72;;;11.60;75.24
44926;BME280;30662;51.210;7.656;2023-02-22T15:26:30;151645.78;;;11.40;77.23
44926;BME280;30662;51.210;7.656;2023-02-22T15:29:00;151636.91;;;11.36;77.98